createdAt,value
2022-09-09T00:02:17.113Z,12.60
2022-09-09T00:05:12.780Z,12.50
2022-09-09T00:07:51.000Z,12.50
2022-09-09T00:10:27.153Z,12.60
2022-09-09T00:13:27.002Z,12.50
2022-09-09T00:16:22.801Z,12.50
2022-09-09T00:19:19.151Z,12.40
2022-09-09T00:22:00.350Z,12.40
2022-09-09T00:24:48.748Z,12.30
2022-09-09T00:27:40.874Z,12.20
2022-09-09T00:30:28.366Z,12.20
2022-09-09T00:33:05.069Z,12.10
2022-09-09T00:36:01.299Z,12.20
2022-09-09T00:38:44.151Z,12.20
2022-09-09T00:41:35.954Z,12.20
2022-09-09T00:44:40.398Z,12.30
2022-09-09T00:47:42.070Z,12.30
2022-09-09T00:51:02.188Z,12.50
2022-09-09T00:54:10.539Z,12.60
2022-09-09T00:57:09.894Z,12.70
2022-09-09T00:59:54.718Z,12.80
2022-09-09T01:02:33.290Z,12.90
2022-09-09T01:05:16.118Z,13.10
2022-09-09T01:07:57.673Z,13.20
2022-09-09T01:10:56.078Z,13.20
2022-09-09T01:13:32.947Z,13.30
2022-09-09T01:16:06.038Z,13.30
2022-09-09T01:18:51.426Z,13.30
2022-09-09T01:21:36.641Z,13.40
2022-09-09T01:24:25.942Z,13.40
2022-09-09T01:27:01.623Z,13.40
2022-09-09T01:29:32.706Z,13.50
2022-09-09T01:32:06.026Z,13.50
2022-09-09T01:34:42.463Z,13.50
2022-09-09T01:37:15.385Z,13.50
2022-09-09T01:39:56.882Z,13.50
2022-09-09T01:42:28.342Z,13.40
2022-09-09T01:44:58.548Z,13.40
2022-09-09T02:06:23.768Z,13.40
2022-09-09T02:09:03.952Z,13.50
2022-09-09T02:11:35.216Z,13.60
2022-09-09T02:14:33.055Z,13.70
2022-09-09T02:17:09.903Z,13.80
2022-09-09T02:19:55.749Z,13.90
2022-09-09T02:22:29.827Z,14.10
2022-09-09T02:25:03.546Z,14.20
2022-09-09T02:27:34.147Z,14.30
2022-09-09T02:30:08.525Z,14.30
2022-09-09T02:32:43.330Z,14.40
2022-09-09T02:35:17.216Z,14.40
2022-09-09T02:37:52.701Z,14.50
2022-09-09T02:40:24.128Z,14.60
2022-09-09T02:42:54.432Z,14.70
2022-09-09T02:45:28.978Z,14.80
2022-09-09T02:48:14.733Z,14.80
2022-09-09T02:51:03.423Z,14.80
2022-09-09T02:53:45.948Z,14.80
2022-09-09T02:56:23.631Z,14.90
2022-09-09T02:58:54.907Z,14.90
2022-09-09T03:01:28.540Z,14.90
2022-09-09T03:03:58.822Z,14.90
2022-09-09T03:06:30.019Z,14.90
2022-09-09T03:09:01.707Z,14.90
2022-09-09T03:11:32.729Z,14.80
2022-09-09T03:14:03.383Z,14.80
2022-09-09T03:16:33.760Z,14.90
2022-09-09T03:19:04.682Z,14.90
2022-09-09T03:21:36.144Z,15.00
2022-09-09T03:24:06.694Z,15.00
2022-09-09T03:26:37.498Z,15.00
2022-09-09T03:29:11.036Z,14.90
2022-09-09T03:31:42.360Z,14.90
2022-09-09T03:34:13.061Z,14.90
2022-09-09T03:36:44.070Z,15.00
2022-09-09T03:39:14.246Z,15.00
2022-09-09T03:41:44.524Z,15.00
2022-09-09T03:44:14.708Z,15.00
2022-09-09T03:46:44.903Z,15.00
2022-09-09T03:49:15.357Z,15.00
2022-09-09T03:51:45.651Z,15.10
2022-09-09T03:54:15.900Z,15.10
2022-09-09T03:56:46.558Z,15.20
2022-09-09T03:59:17.478Z,15.20
2022-09-09T04:01:49.634Z,15.20
2022-09-09T04:04:21.161Z,15.20
2022-09-09T04:06:51.844Z,15.20
2022-09-09T04:09:23.272Z,15.20
2022-09-09T04:11:55.051Z,15.20
2022-09-09T04:14:25.656Z,15.10
2022-09-09T04:16:58.721Z,15.10
2022-09-09T04:19:28.948Z,15.10
2022-09-09T04:21:59.848Z,15.10
2022-09-09T04:24:30.151Z,15.10
2022-09-09T04:27:00.554Z,15.10
2022-09-09T04:29:30.706Z,15.10
2022-09-09T04:32:00.986Z,15.00
2022-09-09T04:34:33.181Z,15.00
2022-09-09T04:37:03.874Z,14.90
2022-09-09T04:39:34.031Z,14.80
2022-09-09T04:42:05.169Z,14.80
2022-09-09T04:44:35.354Z,14.70
2022-09-09T04:47:05.636Z,14.60
2022-09-09T04:49:36.028Z,14.50
2022-09-09T04:52:07.047Z,14.50
2022-09-09T04:54:37.708Z,14.40
2022-09-09T04:57:07.994Z,14.40
2022-09-09T04:59:38.174Z,14.20
2022-09-09T05:02:08.758Z,14.20
2022-09-09T05:04:38.961Z,14.00
2022-09-09T05:07:10.818Z,13.90
2022-09-09T05:09:40.939Z,13.80
2022-09-09T05:12:11.241Z,13.70
2022-09-09T05:14:41.922Z,13.60
2022-09-09T05:17:12.654Z,13.60
2022-09-09T05:19:43.304Z,13.70
2022-09-09T05:22:14.641Z,13.70
2022-09-09T05:24:49.162Z,13.70
2022-09-09T05:27:22.107Z,13.80
2022-09-09T05:29:52.361Z,13.90
2022-09-09T05:32:22.849Z,13.90
2022-09-09T05:34:54.634Z,13.90
2022-09-09T05:37:26.305Z,13.90
2022-09-09T05:39:56.993Z,14.00
2022-09-09T05:42:28.971Z,14.10
2022-09-09T05:45:02.360Z,14.20
2022-09-09T05:47:34.846Z,14.30
2022-09-09T05:50:06.924Z,14.30
2022-09-09T05:52:37.703Z,14.40
2022-09-09T05:55:09.150Z,14.40
2022-09-09T05:57:39.871Z,14.40
2022-09-09T06:00:11.274Z,14.40
2022-09-09T06:02:43.398Z,14.40
2022-09-09T06:05:15.301Z,14.40
2022-09-09T06:07:47.800Z,14.50
2022-09-09T06:10:17.994Z,14.50
2022-09-09T06:12:48.179Z,14.60
2022-09-09T06:15:18.491Z,14.60
2022-09-09T06:17:49.169Z,14.50
2022-09-09T06:20:20.912Z,14.50
2022-09-09T06:22:53.661Z,14.50
2022-09-09T06:25:24.545Z,14.50
2022-09-09T06:27:54.667Z,14.50
2022-09-09T06:30:24.864Z,14.40
2022-09-09T06:32:55.091Z,14.40
2022-09-09T06:35:25.234Z,14.40
2022-09-09T06:37:55.835Z,14.30
2022-09-09T06:40:26.393Z,14.30
2022-09-09T06:42:56.581Z,14.30
2022-09-09T06:45:26.820Z,14.20
2022-09-09T06:47:59.558Z,14.20
2022-09-09T06:50:29.659Z,14.10
2022-09-09T06:52:59.943Z,14.10
2022-09-09T06:55:30.806Z,14.10
2022-09-09T06:58:00.995Z,14.10
2022-09-09T07:00:31.793Z,14.10
2022-09-09T07:03:01.951Z,14.00
2022-09-09T07:05:32.493Z,13.90
2022-09-09T07:08:03.150Z,13.90
2022-09-09T07:10:34.074Z,13.90
2022-09-09T07:13:04.871Z,13.80
2022-09-09T07:15:36.287Z,13.80
2022-09-09T07:18:08.039Z,13.80
2022-09-09T07:20:38.251Z,13.70
2022-09-09T07:23:08.378Z,13.60
2022-09-09T07:25:39.408Z,13.60
2022-09-09T07:28:11.743Z,13.50
2022-09-09T07:30:44.293Z,13.50
2022-09-09T07:33:15.579Z,13.40
2022-09-09T07:35:48.041Z,13.40
2022-09-09T07:38:20.651Z,13.30
2022-09-09T07:40:51.176Z,13.20
2022-09-09T07:43:21.369Z,13.20
2022-09-09T07:46:00.080Z,13.10
2022-09-09T07:48:30.723Z,13.10
2022-09-09T07:51:14.320Z,13.00
2022-09-09T07:53:44.678Z,13.00
2022-09-09T07:56:17.219Z,13.00
2022-09-09T07:58:49.746Z,12.90
2022-09-09T08:01:31.520Z,12.80
2022-09-09T08:04:04.772Z,12.70
2022-09-09T08:06:39.029Z,12.60
2022-09-09T08:09:11.442Z,12.60
2022-09-09T08:11:42.981Z,12.50
2022-09-09T08:14:14.922Z,12.40
2022-09-09T08:16:54.842Z,12.30
2022-09-09T08:19:26.117Z,12.20
2022-09-09T08:21:56.770Z,12.20
2022-09-09T08:24:26.974Z,12.10
2022-09-09T08:26:58.801Z,12.10
2022-09-09T08:29:28.979Z,12.10
2022-09-09T08:32:01.074Z,12.10
2022-09-09T08:34:32.983Z,12.10
2022-09-09T08:37:03.436Z,12.00
2022-09-09T08:39:35.427Z,12.00
2022-09-09T08:42:34.215Z,11.90
2022-09-09T08:45:23.061Z,11.90
2022-09-09T08:47:53.582Z,11.80
2022-09-09T08:50:41.192Z,11.70
2022-09-09T08:53:20.404Z,11.70
2022-09-09T08:55:52.455Z,11.60
2022-09-09T08:58:24.995Z,11.70
2022-09-09T09:01:22.208Z,11.60
2022-09-09T09:04:16.637Z,11.60
2022-09-09T09:07:09.341Z,11.50
2022-09-09T09:10:18.882Z,11.50
2022-09-09T09:12:57.843Z,11.40
2022-09-09T09:15:33.576Z,11.40
2022-09-09T09:18:04.261Z,11.40
2022-09-09T09:20:54.596Z,11.40
2022-09-09T09:23:33.442Z,11.40
2022-09-09T09:26:05.024Z,11.30
2022-09-09T09:28:38.604Z,11.40
2022-09-09T09:31:17.304Z,11.40
2022-09-09T09:33:56.101Z,11.40
2022-09-09T09:36:36.891Z,11.30
2022-09-09T09:42:02.694Z,11.10
2022-09-09T09:44:39.985Z,11.10
2022-09-09T09:47:17.697Z,11.00
2022-09-09T09:50:03.750Z,11.00
2022-09-09T09:52:37.321Z,11.00
2022-09-09T09:55:17.522Z,10.90
2022-09-09T09:57:48.504Z,10.90
2022-09-09T10:00:21.905Z,10.90
2022-09-09T10:02:57.144Z,10.80
2022-09-09T10:05:36.227Z,10.80
2022-09-09T10:08:29.529Z,10.80
2022-09-09T10:11:17.449Z,10.80
2022-09-09T10:14:03.335Z,10.90
2022-09-09T10:16:56.590Z,10.80
2022-09-09T10:19:39.174Z,10.80
2022-09-09T10:22:32.991Z,10.80
2022-09-09T10:25:24.269Z,10.80
2022-09-09T10:28:19.446Z,10.80
2022-09-09T10:31:15.889Z,10.70
2022-09-09T10:34:00.880Z,10.80
2022-09-09T10:36:32.841Z,10.80
2022-09-09T10:39:15.820Z,10.80
2022-09-09T10:42:05.032Z,10.80
2022-09-09T10:45:00.605Z,10.80
2022-09-09T10:47:58.854Z,10.80
2022-09-09T10:51:04.667Z,10.80
2022-09-09T10:53:44.756Z,10.80
2022-09-09T10:56:18.539Z,10.80
2022-09-09T10:58:55.367Z,10.80
2022-09-09T11:01:34.070Z,10.80
2022-09-09T11:04:36.863Z,10.80
2022-09-09T11:07:21.561Z,10.80
2022-09-09T11:09:58.413Z,10.80
2022-09-09T11:12:30.469Z,10.80
2022-09-09T11:15:16.564Z,10.80
2022-09-09T11:17:54.442Z,10.80
2022-09-09T11:20:25.718Z,10.80
2022-09-09T11:23:08.216Z,10.80
2022-09-09T11:25:54.599Z,10.80
2022-09-09T11:28:51.550Z,10.80
2022-09-09T11:31:47.525Z,10.80
2022-09-09T11:34:54.817Z,10.80
2022-09-09T11:38:00.151Z,10.80
2022-09-09T11:40:35.986Z,10.80
2022-09-09T11:43:13.879Z,10.80
2022-09-09T11:45:46.493Z,10.80
2022-09-09T11:48:49.437Z,10.80
2022-09-09T11:51:30.476Z,10.80
2022-09-09T11:54:05.855Z,10.80
2022-09-09T11:56:46.672Z,10.80
2022-09-09T11:59:28.396Z,10.80
2022-09-09T12:02:04.377Z,10.80
2022-09-09T12:04:43.907Z,10.80
2022-09-09T12:07:14.093Z,10.80
2022-09-09T12:10:04.700Z,10.80
2022-09-09T12:12:41.691Z,10.80
2022-09-09T12:15:14.672Z,10.80
2022-09-09T12:17:53.614Z,10.70
2022-09-09T12:20:40.217Z,10.70
2022-09-09T12:23:25.837Z,10.70
2022-09-09T12:26:20.950Z,10.70
2022-09-09T12:28:55.991Z,10.70
2022-09-09T12:31:33.299Z,10.60
2022-09-09T12:34:20.855Z,10.60
2022-09-09T12:36:57.339Z,10.60
2022-09-09T12:39:39.820Z,10.60
2022-09-09T12:42:23.662Z,10.70
2022-09-09T12:45:05.954Z,10.70
2022-09-09T12:48:00.919Z,10.70
2022-09-09T12:50:37.885Z,10.70
2022-09-09T12:53:12.729Z,10.60
2022-09-09T12:55:52.617Z,10.60
2022-09-09T12:58:24.081Z,10.60
2022-09-09T13:00:59.130Z,10.60
2022-09-09T13:03:30.332Z,10.60
2022-09-09T13:06:17.345Z,10.60
2022-09-09T13:08:47.513Z,10.60
2022-09-09T13:11:46.055Z,10.60
2022-09-09T13:14:37.348Z,10.50
2022-09-09T13:17:10.200Z,10.50
2022-09-09T13:19:48.539Z,10.50
2022-09-09T13:22:39.831Z,10.50
2022-09-09T13:25:10.415Z,10.50
2022-09-09T13:27:43.597Z,10.50
2022-09-09T13:30:32.139Z,10.50
2022-09-09T13:33:07.248Z,10.50
2022-09-09T13:35:38.379Z,10.50
2022-09-09T13:38:13.539Z,10.50
2022-09-09T13:40:43.824Z,10.50
2022-09-09T13:43:29.605Z,10.50
2022-09-09T13:46:06.633Z,10.50
2022-09-09T13:48:37.377Z,10.50
2022-09-09T13:51:28.210Z,10.60
2022-09-09T13:53:58.343Z,10.60
2022-09-09T13:56:28.613Z,10.60
2022-09-09T13:59:01.148Z,10.60
2022-09-09T14:01:31.844Z,10.60
2022-09-09T14:04:02.722Z,10.60
2022-09-09T14:06:35.383Z,10.60
2022-09-09T14:09:05.665Z,10.60
2022-09-09T14:11:36.454Z,10.70
2022-09-09T14:14:08.081Z,10.60
2022-09-09T14:16:39.103Z,10.70
2022-09-09T14:19:09.306Z,10.70
2022-09-09T14:21:39.835Z,10.70
2022-09-09T14:24:10.490Z,10.70
2022-09-09T14:26:40.773Z,10.70
2022-09-09T14:29:11.046Z,10.70
2022-09-09T14:31:41.213Z,10.70
2022-09-09T14:34:13.169Z,10.70
2022-09-09T14:36:44.615Z,10.70
2022-09-09T14:39:15.411Z,10.70
2022-09-09T14:41:45.755Z,10.70
2022-09-09T14:44:17.016Z,10.70
2022-09-09T14:46:47.203Z,10.70
2022-09-09T14:49:18.205Z,10.70
2022-09-09T14:51:48.352Z,10.70
2022-09-09T14:54:18.964Z,10.60
2022-09-09T14:56:50.178Z,10.60
2022-09-09T14:59:20.971Z,10.60
2022-09-09T15:01:51.464Z,10.70
2022-09-09T15:04:22.313Z,10.70
2022-09-09T15:06:55.156Z,10.70
2022-09-09T15:09:25.733Z,10.70
2022-09-09T15:11:56.042Z,10.70
2022-09-09T15:14:26.313Z,10.70
2022-09-09T15:16:56.529Z,10.70
2022-09-09T15:19:26.776Z,10.70
2022-09-09T15:21:57.430Z,10.70
2022-09-09T15:24:28.565Z,10.70
2022-09-09T15:26:59.310Z,10.70
2022-09-09T15:29:29.820Z,10.80
2022-09-09T15:32:00.149Z,10.80
2022-09-09T15:34:30.326Z,10.70
2022-09-09T15:37:02.591Z,10.80
2022-09-09T15:39:35.764Z,10.70
2022-09-09T15:42:11.209Z,10.70
2022-09-09T15:44:47.935Z,10.80
2022-09-09T15:47:18.891Z,10.80
2022-09-09T15:49:49.084Z,10.80
2022-09-09T15:52:19.394Z,10.80
2022-09-09T15:54:49.630Z,10.80
2022-09-09T15:57:20.227Z,10.80
2022-09-09T15:59:50.974Z,10.70
2022-09-09T16:02:22.671Z,10.70
2022-09-09T16:04:54.183Z,10.70
2022-09-09T16:07:24.733Z,10.70
2022-09-09T16:09:55.480Z,10.70
2022-09-09T16:12:25.766Z,10.70
2022-09-09T16:14:55.926Z,10.70
2022-09-09T16:17:26.163Z,10.70
2022-09-09T16:19:57.034Z,10.70
2022-09-09T16:22:27.628Z,10.70
2022-09-09T16:24:58.281Z,10.70
2022-09-09T16:27:28.921Z,10.70
2022-09-09T16:29:59.557Z,10.70
2022-09-09T16:32:29.845Z,10.70
2022-09-09T16:35:00.129Z,10.70
2022-09-09T16:37:30.388Z,10.70
2022-09-09T16:40:01.841Z,10.70
2022-09-09T16:42:34.311Z,10.70
2022-09-09T16:45:09.462Z,10.70
2022-09-09T16:47:39.716Z,10.70
2022-09-09T16:50:10.312Z,10.60
2022-09-09T16:52:40.877Z,10.60
2022-09-09T16:55:12.009Z,10.60
2022-09-09T16:57:42.395Z,10.60
2022-09-09T17:00:13.520Z,10.60
2022-09-09T17:02:44.669Z,10.60
2022-09-09T17:05:15.579Z,10.60
2022-09-09T17:07:46.801Z,10.60
2022-09-09T17:10:18.440Z,10.60
2022-09-09T17:12:48.998Z,10.60
2022-09-09T17:15:20.701Z,10.60
2022-09-09T17:17:55.872Z,10.60
2022-09-09T17:20:26.009Z,10.60
2022-09-09T17:22:56.200Z,10.60
2022-09-09T17:25:27.001Z,10.60
2022-09-09T17:27:57.269Z,10.60
2022-09-09T17:30:27.614Z,10.60
2022-09-09T17:32:58.022Z,10.60
2022-09-09T17:35:28.854Z,10.60
2022-09-09T17:37:59.323Z,10.60
2022-09-09T17:40:30.366Z,10.60
2022-09-09T17:43:00.837Z,10.70
2022-09-09T17:45:33.041Z,10.70
2022-09-09T17:48:03.193Z,10.70
2022-09-09T17:50:35.447Z,10.70
2022-09-09T17:53:05.971Z,10.70
2022-09-09T17:55:37.137Z,10.70
2022-09-09T17:58:07.982Z,10.70
2022-09-09T18:00:39.434Z,10.70
2022-09-09T18:03:10.185Z,10.70
2022-09-09T18:05:40.368Z,10.70
2022-09-09T18:08:11.413Z,10.70
2022-09-09T18:10:41.890Z,10.70
2022-09-09T18:13:12.266Z,10.70
2022-09-09T18:15:49.129Z,10.70
2022-09-09T18:18:20.239Z,10.60
2022-09-09T18:21:00.963Z,10.60
2022-09-09T18:23:34.643Z,10.60
2022-09-09T18:26:09.055Z,10.50
2022-09-09T18:28:40.755Z,10.50
2022-09-09T18:31:12.987Z,10.50
2022-09-09T18:33:45.800Z,10.50
2022-09-09T18:36:22.638Z,10.50
2022-09-09T18:38:54.222Z,10.50
2022-09-09T18:41:27.404Z,10.50
2022-09-09T18:44:03.136Z,10.40
2022-09-09T18:46:36.606Z,10.50
2022-09-09T18:49:08.318Z,10.50
2022-09-09T18:51:38.883Z,10.40
2022-09-09T18:54:15.860Z,10.40
2022-09-09T18:56:46.795Z,10.40
2022-09-09T18:59:23.457Z,10.40
2022-09-09T19:01:55.701Z,10.30
2022-09-09T19:04:29.517Z,10.30
2022-09-09T19:06:59.709Z,10.30
2022-09-09T19:09:35.581Z,10.30
2022-09-09T19:12:07.862Z,10.30
2022-09-09T19:14:38.204Z,10.30
2022-09-09T19:17:09.196Z,10.30
2022-09-09T19:19:39.360Z,10.30
2022-09-09T19:22:13.315Z,10.30
2022-09-09T19:24:44.376Z,10.30
2022-09-09T19:27:14.601Z,10.30
2022-09-09T19:29:46.237Z,10.30
2022-09-09T19:35:07.709Z,10.30
2022-09-09T19:37:38.221Z,10.30
2022-09-09T19:40:10.210Z,10.20
2022-09-09T19:42:42.361Z,10.20
2022-09-09T19:45:12.821Z,10.20
2022-09-09T19:47:46.835Z,10.20
2022-09-09T19:50:17.555Z,10.10
2022-09-09T19:52:47.789Z,10.20
2022-09-09T19:55:18.109Z,10.10
2022-09-09T19:57:48.279Z,10.10
2022-09-09T20:00:18.662Z,10.20
2022-09-09T20:03:15.227Z,10.20
2022-09-09T20:05:43.167Z,10.20
2022-09-09T20:08:13.700Z,10.20
2022-09-09T20:10:52.572Z,10.20
2022-09-09T20:13:25.197Z,10.20
2022-09-09T20:16:08.225Z,10.20
2022-09-09T20:18:41.398Z,10.20
2022-09-09T20:21:18.243Z,10.20
2022-09-09T20:23:48.496Z,10.20
2022-09-09T20:26:22.963Z,10.20
2022-09-09T20:28:56.162Z,10.20
2022-09-09T20:31:29.925Z,10.20
2022-09-09T20:34:01.389Z,10.10
2022-09-09T20:36:35.384Z,10.10
2022-09-09T20:39:09.363Z,10.10
2022-09-09T20:41:41.590Z,10.20
2022-09-09T20:44:16.193Z,10.20
2022-09-09T20:46:51.801Z,10.20
2022-09-09T20:49:24.660Z,10.20
2022-09-09T20:51:56.878Z,10.20
2022-09-09T20:54:30.095Z,10.20
2022-09-09T20:57:04.875Z,10.20
2022-09-09T20:59:36.403Z,10.30
2022-09-09T21:02:07.276Z,10.30
2022-09-09T21:04:39.103Z,10.30
2022-09-09T21:07:09.673Z,10.40
2022-09-09T21:09:40.032Z,10.40
2022-09-09T21:12:10.473Z,10.50
2022-09-09T21:14:40.798Z,10.50
2022-09-09T21:17:11.041Z,10.60
2022-09-09T21:19:41.285Z,10.70
2022-09-09T21:22:11.693Z,10.70
2022-09-09T21:24:42.088Z,10.80
2022-09-09T21:27:12.822Z,10.90
2022-09-09T21:29:43.156Z,11.00
2022-09-09T21:32:13.408Z,11.00
2022-09-09T21:34:44.064Z,11.00
2022-09-09T21:37:14.436Z,11.10
2022-09-09T21:39:45.186Z,11.10
2022-09-09T21:42:16.431Z,11.20
2022-09-09T21:44:46.548Z,11.20
2022-09-09T21:47:17.807Z,11.30
2022-09-09T21:49:48.078Z,11.30
2022-09-09T21:52:18.283Z,11.40
2022-09-09T21:54:48.491Z,11.50
2022-09-09T21:57:22.956Z,11.50
2022-09-09T21:59:55.169Z,11.60
2022-09-09T22:02:25.633Z,11.60
2022-09-09T22:04:55.879Z,11.60
2022-09-09T22:07:26.064Z,11.60
2022-09-09T22:09:56.894Z,11.60
2022-09-09T22:12:27.423Z,11.60
2022-09-09T22:14:58.700Z,11.60
2022-09-09T22:17:30.411Z,11.60
2022-09-09T22:20:00.757Z,11.60
2022-09-09T22:22:31.064Z,11.70
2022-09-09T22:25:01.308Z,11.70
2022-09-09T22:27:31.818Z,11.80
2022-09-09T22:30:02.323Z,11.90
2022-09-09T22:32:32.918Z,12.00
2022-09-09T22:35:03.296Z,12.10
2022-09-09T22:37:33.662Z,12.10
2022-09-09T22:40:04.004Z,12.20
2022-09-09T22:42:34.215Z,12.30
2022-09-09T22:45:04.570Z,12.40
2022-09-09T22:47:36.183Z,12.50
2022-09-09T22:50:08.375Z,12.60
2022-09-09T22:52:38.751Z,12.50
2022-09-09T22:55:09.606Z,12.60
2022-09-09T22:57:40.085Z,12.60
2022-09-09T23:00:11.413Z,12.60
2022-09-09T23:02:42.262Z,12.60
2022-09-09T23:05:12.567Z,12.70
2022-09-09T23:07:44.716Z,12.70
2022-09-09T23:10:15.488Z,12.70
2022-09-09T23:12:46.124Z,12.80
2022-09-09T23:15:16.401Z,12.70
2022-09-09T23:17:46.568Z,12.80
2022-09-09T23:20:16.897Z,12.80
2022-09-09T23:22:47.396Z,12.80
2022-09-09T23:25:17.891Z,12.80
2022-09-09T23:27:48.145Z,12.80
2022-09-09T23:30:18.297Z,12.80
2022-09-09T23:32:50.783Z,12.80
2022-09-09T23:35:20.992Z,12.80
2022-09-09T23:37:51.825Z,12.80
2022-09-09T23:40:22.199Z,12.80
2022-09-09T23:42:52.747Z,12.90
2022-09-09T23:45:23.814Z,13.00
2022-09-09T23:47:57.744Z,13.20
2022-09-09T23:50:27.934Z,13.50
2022-09-09T23:52:59.410Z,13.70
2022-09-09T23:55:31.309Z,13.80
2022-09-09T23:58:01.469Z,13.90
